Time;durP1;ratioP1;P1;durP2;ratioP2;P2;SDS_P1;SDS_P2;PMS_P1;PMS_P2;Temp;Humidity;BMP_temperature;BMP_pressure;BME280_temperature;BME280_humidity;BME280_pressure;Samples;Min_cycle;Max_cycle;Signal;HPM_P1;HPM_P2
2023/05/21 08:06:08;;;;;;;10.98;7.78;;;;;;;16.08;100.00;101531.84;5085547;27;1257415;-69
2023/05/21 08:08:33;;;;;;;9.48;8.48;;;;;;;16.09;100.00;101522.59;5146909;27;20027;-70
2023/05/21 08:10:59;;;;;;;8.48;7.60;;;;;;;16.16;100.00;101524.31;5130719;27;20143;-71
2023/05/21 08:13:24;;;;;;;12.00;8.27;;;;;;;16.28;100.00;101530.53;5125532;27;20020;-73
2023/05/21 08:15:50;;;;;;;12.85;8.65;;;;;;;16.30;100.00;101533.84;5112245;28;20476;-74
2023/05/21 08:18:16;;;;;;;9.77;8.00;;;;;;;16.26;100.00;101528.06;5130699;28;20031;-70
2023/05/21 08:20:42;;;;;;;9.77;8.57;;;;;;;16.27;100.00;101523.41;5130869;28;20024;-69
2023/05/21 08:23:07;;;;;;;11.18;8.50;;;;;;;16.37;100.00;101523.59;5128339;28;20046;-69
2023/05/21 08:25:32;;;;;;;9.23;7.90;;;;;;;16.41;100.00;101527.50;5130213;28;20028;-69
2023/05/21 08:27:58;;;;;;;11.88;8.43;;;;;;;16.44;100.00;101526.16;5130414;28;20419;-69
2023/05/21 08:30:23;;;;;;;13.35;8.65;;;;;;;16.47;100.00;101515.56;5129974;28;20343;-69
2023/05/21 08:32:49;;;;;;;10.07;8.07;;;;;;;16.46;100.00;101519.38;5128685;28;20478;-69
2023/05/21 08:35:14;;;;;;;9.63;8.15;;;;;;;16.55;100.00;101500.66;5129147;27;20147;-69
2023/05/21 08:37:39;;;;;;;10.88;8.88;;;;;;;16.65;100.00;101506.28;5111641;28;20042;-69
2023/05/21 08:40:05;;;;;;;11.32;8.52;;;;;;;16.72;100.00;101502.56;5129733;28;20031;-70
2023/05/21 08:42:48;;;;;;;11.38;8.30;;;;;;;16.83;100.00;101497.00;5129940;28;20028;-70
2023/05/21 08:45:19;;;;;;;11.65;8.70;;;;;;;16.90;100.00;101504.22;5129624;28;20739;-69
2023/05/21 08:47:45;;;;;;;11.15;8.38;;;;;;;16.98;100.00;101501.03;5128885;28;20048;-69
2023/05/21 08:50:12;;;;;;;12.68;9.05;;;;;;;17.14;100.00;101497.44;5129530;28;20023;-70
2023/05/21 08:52:37;;;;;;;12.60;8.73;;;;;;;17.14;100.00;101496.63;5129758;28;20212;-69
2023/05/21 08:55:04;;;;;;;9.77;8.23;;;;;;;17.28;100.00;101506.09;5115671;27;20539;-69
2023/05/21 08:57:30;;;;;;;11.25;8.73;;;;;;;17.30;100.00;101497.63;5108769;28;20123;-69
2023/05/21 08:59:56;;;;;;;12.10;9.18;;;;;;;17.31;100.00;101499.28;5108807;28;20398;-70
2023/05/21 09:02:23;;;;;;;13.52;8.68;;;;;;;17.30;100.00;101503.94;5117935;28;20036;-73
2023/05/21 09:04:49;;;;;;;10.80;8.63;;;;;;;17.25;100.00;101500.31;5128665;27;20096;-73
2023/05/21 09:07:15;;;;;;;11.48;8.93;;;;;;;17.42;100.00;101498.34;5128297;27;20374;-73
2023/05/21 09:09:48;;;;;;;10.27;8.38;;;;;;;17.45;100.00;101500.56;5124433;27;20054;-72
2023/05/21 09:12:13;;;;;;;11.55;9.00;;;;;;;17.59;100.00;101506.47;5124580;27;20031;-69
2023/05/21 09:14:40;;;;;;;13.82;9.20;;;;;;;17.57;100.00;101491.38;5134853;27;20030;-68
2023/05/21 09:17:05;;;;;;;10.38;8.35;;;;;;;17.65;100.00;101501.91;5135008;27;20485;-68
2023/05/21 09:19:31;;;;;;;12.10;9.07;;;;;;;17.74;100.00;101497.63;5136586;27;20103;-68
2023/05/21 09:22:02;;;;;;;10.80;8.93;;;;;;;17.83;100.00;101496.06;5136562;27;20019;-68
2023/05/21 09:24:30;;;;;;;13.18;8.60;;;;;;;17.81;100.00;101503.69;5136406;27;20050;-69
2023/05/21 09:26:57;;;;;;;9.73;8.18;;;;;;;17.83;100.00;101506.16;5136451;27;20027;-69
2023/05/21 09:29:25;;;;;;;10.43;8.25;;;;;;;17.79;100.00;101505.06;5127483;27;20077;-70
2023/05/21 09:31:50;;;;;;;12.02;8.48;;;;;;;17.83;100.00;101497.97;5115813;28;20032;-70
2023/05/21 09:34:16;;;;;;;10.43;8.38;;;;;;;17.82;100.00;101496.31;5128092;27;20106;-70
2023/05/21 09:36:42;;;;;;;10.00;8.50;;;;;;;17.91;100.00;101496.72;5135178;27;20027;-71
2023/05/21 09:39:10;;;;;;;10.90;8.80;;;;;;;17.96;100.00;101504.97;5117922;27;20474;-71
2023/05/21 09:41:35;;;;;;;9.75;8.63;;;;;;;17.88;100.00;101493.38;5115633;28;20358;-71
2023/05/21 09:44:01;;;;;;;11.60;8.10;;;;;;;17.88;100.00;101493.38;5115497;28;20019;-70
2023/05/21 09:46:35;;;;;;;10.23;9.18;;;;;;;17.78;100.00;101485.03;5114039;28;20031;-69
2023/05/21 09:49:01;;;;;;;10.35;8.93;;;;;;;17.93;100.00;101484.41;5114478;28;20031;-68
2023/05/21 09:51:26;;;;;;;18.55;9.90;;;;;;;18.00;100.00;101484.22;5115302;28;20028;-71
2023/05/21 09:53:59;;;;;;;12.30;8.93;;;;;;;17.98;100.00;101489.94;5125109;27;20038;-71
2023/05/21 09:56:30;;;;;;;9.73;8.63;;;;;;;18.05;100.00;101495.19;5135770;27;20065;-70
2023/05/21 09:59:03;;;;;;;11.35;9.20;;;;;;;18.05;100.00;101487.81;5134480;27;20437;-71
2023/05/21 10:01:30;;;;;;;13.68;9.23;;;;;;;18.16;100.00;101487.91;5124755;27;20050;-71
2023/05/21 10:03:57;;;;;;;11.52;8.73;;;;;;;18.29;100.00;101482.00;5114126;27;20483;-70
2023/05/21 10:06:27;;;;;;;11.70;9.45;;;;;;;18.36;100.00;101476.31;5115080;28;20043;-70
2023/05/21 10:08:55;;;;;;;13.45;9.32;;;;;;;18.37;98.33;101481.53;5115104;28;20058;-69
2023/05/21 10:11:25;;;;;;;12.13;9.25;;;;;;;18.34;96.67;101473.00;5114871;28;20102;-70
2023/05/21 10:13:59;;;;;;;15.50;9.02;;;;;;;18.49;100.00;101469.53;5125989;27;20026;-74
2023/05/21 10:16:25;;;;;;;10.50;9.20;;;;;;;18.64;97.52;101457.84;5130019;27;20657;-74
2023/05/21 10:18:53;;;;;;;9.82;8.00;;;;;;;18.72;95.70;101462.81;5112824;27;20539;-69
2023/05/21 10:21:20;;;;;;;9.80;8.13;;;;;;;18.78;95.14;101453.53;5111612;28;20027;-70
2023/05/21 10:23:47;;;;;;;11.02;9.40;;;;;;;18.80;92.54;101467.81;5134658;27;20030;-69
2023/05/21 10:26:13;;;;;;;14.75;9.93;;;;;;;18.82;95.19;101465.63;5128591;27;20466;-70
2023/05/21 10:28:39;;;;;;;12.57;9.25;;;;;;;18.91;95.24;101460.50;5113334;27;20030;-71
2023/05/21 10:31:05;;;;;;;10.80;9.70;;;;;;;19.00;90.17;101458.91;5114389;28;20031;-70
2023/05/21 10:33:30;;;;;;;11.85;9.68;;;;;;;18.97;90.93;101447.66;5114374;28;20027;-70
2023/05/21 10:35:57;;;;;;;13.52;10.27;;;;;;;19.10;90.33;101444.44;5113430;28;20032;-73
2023/05/21 10:38:23;;;;;;;13.80;9.18;;;;;;;19.20;91.85;101441.69;5112897;28;20096;-69
2023/05/21 10:40:49;;;;;;;13.98;10.18;;;;;;;19.35;89.62;101440.94;5125335;27;20049;-71
2023/05/21 10:43:36;;;;;;;10.38;9.27;;;;;;;19.53;91.12;101445.09;5134720;27;20019;-69
2023/05/21 10:46:20;;;;;;;12.10;10.45;;;;;;;19.70;80.95;101446.78;5133544;27;20121;-70
2023/05/21 10:49:14;;;;;;;13.98;10.90;;;;;;;19.62;77.11;101437.97;5133478;27;20042;-68
2023/05/21 10:52:07;;;;;;;13.82;10.88;;;;;;;19.65;79.18;101437.44;5133537;27;20027;-71
2023/05/21 10:54:56;;;;;;;12.95;10.70;;;;;;;19.75;81.92;101435.81;5111736;27;20040;-67
2023/05/21 10:57:58;;;;;;;15.52;9.88;;;;;;;19.92;82.87;101428.16;5093537;28;20127;-66
2023/05/21 11:00:25;;;;;;;14.40;10.48;;;;;;;20.01;79.31;101423.75;5032766;27;20053;-67
2023/05/21 11:02:51;;;;;;;12.30;11.00;;;;;;;19.98;77.53;101424.31;5111541;28;20058;-68
2023/05/21 11:05:36;;;;;;;15.80;10.77;;;;;;;;;;5113466;27;20086;-67
2023/05/21 11:08:02;;;;;;;15.57;10.88;;;;;;;20.31;74.52;101422.09;5114039;28;20407;-69
2023/05/21 11:10:38;;;;;;;13.80;10.88;;;;;;;20.52;74.93;101416.59;5112436;28;20045;-67
2023/05/21 11:13:13;;;;;;;14.55;10.05;;;;;;;20.59;74.75;101411.59;5113821;28;20088;-68
2023/05/21 11:15:57;;;;;;;12.02;10.18;;;;;;;20.67;75.02;101396.50;5113806;28;20027;-68
2023/05/21 11:18:45;;;;;;;13.85;9.95;;;;;;;20.75;75.43;101397.84;5122389;27;20015;-67
2023/05/21 11:21:13;;;;;;;11.52;9.50;;;;;;;20.82;75.78;101390.09;5110252;27;20104;-68
2023/05/21 11:23:54;;;;;;;13.00;10.18;;;;;;;20.87;73.64;101390.09;5113498;28;20050;-68
2023/05/21 11:26:24;;;;;;;14.88;11.25;;;;;;;20.85;70.30;101392.31;5113562;28;20072;-70
2023/05/21 11:29:10;;;;;;;14.77;10.80;;;;;;;20.86;72.51;101377.44;5111592;28;20019;-70
2023/05/21 11:31:39;;;;;;;11.63;10.38;;;;;;;20.92;73.04;101375.50;5112309;28;20047;-70
2023/05/21 11:34:13;;;;;;;14.93;10.30;;;;;;;21.03;72.37;101383.44;5093098;28;20092;-67
2023/05/21 11:37:17;;;;;;;16.63;10.48;;;;;;;21.27;74.44;101371.72;5093084;28;20066;-70
2023/05/21 11:39:49;;;;;;;13.98;11.13;;;;;;;21.36;67.32;101375.53;5087997;27;20083;-68
2023/05/21 11:42:34;;;;;;;15.88;12.85;;;;;;;21.38;67.67;101373.31;5133723;27;20019;-70
2023/05/21 11:45:01;;;;;;;15.00;11.30;;;;;;;21.43;69.24;101378.78;5133825;27;20023;-68
2023/05/21 11:47:28;;;;;;;14.38;11.32;;;;;;;21.54;67.79;101376.00;5123043;27;20026;-68
2023/05/21 11:49:55;;;;;;;16.60;11.70;;;;;;;21.60;66.35;101380.34;5113308;28;20070;-70
2023/05/21 11:52:21;;;;;;;15.00;12.18;;;;;;;21.72;66.00;101375.28;5113006;28;20059;-68
2023/05/21 11:54:53;;;;;;;14.50;12.50;;;;;;;21.90;66.01;101370.19;5113136;28;20070;-68
2023/05/21 11:57:19;;;;;;;16.83;12.63;;;;;;;21.93;63.67;101367.69;5115065;27;20034;-68
2023/05/21 11:59:46;;;;;;;15.27;12.07;;;;;;;22.09;64.00;101357.34;5113559;27;20099;-69
2023/05/21 12:02:16;;;;;;;15.25;12.63;;;;;;;22.10;61.79;101358.16;5109674;28;20126;-70
2023/05/21 12:04:41;;;;;;;15.48;11.85;;;;;;;22.16;63.46;101353.44;5112323;28;20020;-70
2023/05/21 12:07:08;;;;;;;14.05;11.90;;;;;;;22.29;63.66;101361.81;5113328;28;20050;-70
2023/05/21 12:09:44;;;;;;;19.10;12.43;;;;;;;22.39;62.41;101354.59;5112852;28;20123;-68
2023/05/21 12:12:12;;;;;;;15.23;12.45;;;;;;;22.31;61.32;101347.78;5113022;28;20139;-70
2023/05/21 12:14:38;;;;;;;14.93;11.45;;;;;;;22.28;62.23;101351.09;5112985;28;20024;-68
2023/05/21 12:17:06;;;;;;;11.80;10.48;;;;;;;22.36;62.95;101344.97;5112152;28;20092;-70
2023/05/21 12:19:36;;;;;;;19.10;12.38;;;;;;;22.40;62.57;101347.97;5127957;28;20057;-69
2023/05/21 12:22:02;;;;;;;12.73;11.43;;;;;;;22.57;61.78;101342.81;5132015;28;20484;-70
2023/05/21 12:24:28;;;;;;;15.27;12.38;;;;;;;22.74;59.97;101345.06;5133113;27;20106;-69
2023/05/21 12:26:54;;;;;;;14.02;11.38;;;;;;;22.85;58.74;101350.47;5133138;27;20051;-68
2023/05/21 12:29:20;;;;;;;18.08;12.07;;;;;;;22.98;59.28;101342.28;5133126;28;20068;-68
2023/05/21 12:31:49;;;;;;;15.52;12.20;;;;;;;23.04;58.63;101344.94;5124949;27;20054;-70
2023/05/21 12:34:17;;;;;;;15.70;11.75;;;;;;;23.02;58.55;101345.25;5112592;28;20412;-68
2023/05/21 12:36:47;;;;;;;17.45;12.18;;;;;;;22.88;58.92;101342.41;5112733;28;20439;-67
2023/05/21 12:39:12;;;;;;;17.05;12.95;;;;;;;22.71;58.00;101340.16;5124741;28;20530;-70
2023/05/21 12:41:38;;;;;;;17.40;12.60;;;;;;;22.58;59.07;101346.38;5133371;27;20027;-70
2023/05/21 12:44:04;;;;;;;15.35;11.43;;;;;;;22.46;60.15;101350.38;5133230;27;20072;-68
2023/05/21 12:46:29;;;;;;;14.50;12.05;;;;;;;22.39;59.95;101354.59;5124520;27;20034;-68
2023/05/21 12:48:55;;;;;;;16.58;11.88;;;;;;;22.45;60.11;101358.94;5112712;28;20023;-71
2023/05/21 12:51:20;;;;;;;15.15;12.23;;;;;;;22.50;60.93;101355.31;5112313;28;20366;-68
2023/05/21 12:53:46;;;;;;;13.25;11.95;;;;;;;22.53;61.73;101365.75;5114317;28;20462;-68
2023/05/21 12:56:15;;;;;;;19.90;13.40;;;;;;;22.57;59.18;101361.28;5116511;28;20039;-68
2023/05/21 12:58:42;;;;;;;17.00;12.85;;;;;;;22.70;60.51;101357.00;5114182;28;20481;-70
2023/05/21 13:01:08;;;;;;;19.08;12.65;;;;;;;22.70;60.88;101360.56;5113079;28;20043;-71
2023/05/21 13:03:35;;;;;;;18.88;12.75;;;;;;;22.70;59.75;101357.00;5116180;28;20462;-70
2023/05/21 13:06:01;;;;;;;18.23;12.65;;;;;;;22.73;59.21;101362.72;5116207;28;20140;-67
2023/05/21 13:08:27;;;;;;;15.10;12.52;;;;;;;22.94;58.92;101365.25;5113307;28;20024;-70
2023/05/21 13:10:52;;;;;;;15.95;11.45;;;;;;;23.07;57.84;101364.53;5116187;28;20058;-68
2023/05/21 13:13:18;;;;;;;14.68;11.80;;;;;;;23.03;58.36;101357.94;5115962;28;20427;-70
2023/05/21 13:15:43;;;;;;;15.93;12.35;;;;;;;22.99;58.66;101365.16;5116114;28;20020;-70
2023/05/21 13:18:08;;;;;;;15.40;12.65;;;;;;;22.91;57.40;101357.56;5122760;27;20031;-70
2023/05/21 13:20:35;;;;;;;15.48;12.35;;;;;;;23.05;58.53;101363.97;5136586;27;20050;-69
2023/05/21 13:23:00;;;;;;;16.67;11.77;;;;;;;23.07;57.65;101367.28;5134007;27;20033;-70
2023/05/21 13:25:27;;;;;;;12.98;11.07;;;;;;;22.97;57.51;101367.41;5115740;28;20106;-70
2023/05/21 13:27:53;;;;;;;13.13;11.43;;;;;;;23.00;57.91;101366.81;5115952;28;20034;-70
2023/05/21 13:30:20;;;;;;;15.30;12.10;;;;;;;23.11;58.13;101362.81;5115589;28;20032;-69
2023/05/21 13:32:45;;;;;;;14.95;12.82;;;;;;;23.17;57.28;101360.81;5115587;28;20114;-68
2023/05/21 13:35:10;;;;;;;15.80;12.20;;;;;;;23.33;57.00;101353.13;5115845;28;20098;-70
2023/05/21 13:37:38;;;;;;;16.08;11.77;;;;;;;23.41;57.52;101360.72;5117441;27;20019;-70
2023/05/21 13:40:05;;;;;;;14.10;11.23;;;;;;;23.32;56.99;101357.00;5115557;28;20055;-70
2023/05/21 13:42:31;;;;;;;13.63;11.38;;;;;;;23.30;57.03;101351.78;5115440;28;20169;-69
2023/05/21 13:44:57;;;;;;;16.00;10.88;;;;;;;23.36;57.28;101349.78;5115488;28;20482;-68
2023/05/21 13:47:22;;;;;;;15.48;11.27;;;;;;;23.39;56.28;101343.66;5115267;28;20062;-70
2023/05/21 13:49:48;;;;;;;15.25;11.50;;;;;;;23.64;55.85;101349.88;5115549;28;20023;-69
2023/05/21 13:52:13;;;;;;;13.15;11.70;;;;;;;23.61;54.72;101347.72;5115596;28;20066;-68
2023/05/21 13:54:39;;;;;;;14.20;10.77;;;;;;;23.83;55.11;101350.66;5114080;28;20458;-70
2023/05/21 13:57:04;;;;;;;13.32;11.60;;;;;;;23.76;55.68;101341.94;5114251;28;20404;-70
2023/05/21 13:59:30;;;;;;;16.73;11.85;;;;;;;23.82;55.53;101337.94;5115962;27;20099;-69
2023/05/21 14:01:56;;;;;;;13.50;10.85;;;;;;;24.04;55.02;101340.09;5123774;27;20066;-68
2023/05/21 14:04:22;;;;;;;14.88;10.50;;;;;;;24.19;54.08;101327.13;5115268;28;20024;-70
2023/05/21 14:06:47;;;;;;;14.52;10.95;;;;;;;24.48;54.32;101331.53;5115378;28;20044;-69
2023/05/21 14:09:12;;;;;;;14.70;11.05;;;;;;;24.50;53.63;101316.25;5112795;28;20027;-68
2023/05/21 14:11:38;;;;;;;13.23;10.88;;;;;;;24.73;54.19;101316.34;5094458;28;20027;-68
2023/05/21 14:14:03;;;;;;;12.38;10.35;;;;;;;24.82;53.36;101324.75;5094671;28;20024;-70
2023/05/21 14:16:29;;;;;;;16.25;11.55;;;;;;;24.63;52.17;101322.94;5094350;28;20508;-70
2023/05/21 14:18:57;;;;;;;15.75;12.40;;;;;;;24.51;52.70;101319.84;5126149;27;20038;-69
2023/05/21 14:21:23;;;;;;;13.60;11.60;;;;;;;24.25;53.04;101317.59;5135222;27;20053;-68
2023/05/21 14:23:49;;;;;;;13.48;9.85;;;;;;;24.38;53.89;101318.72;5135665;27;20110;-68
2023/05/21 14:26:15;;;;;;;13.23;10.63;;;;;;;24.40;53.89;101319.25;5114408;28;20114;-69
2023/05/21 14:28:41;;;;;;;11.82;9.75;;;;;;;24.57;54.29;101308.34;5113139;28;20411;-70
2023/05/21 14:31:06;;;;;;;12.77;10.32;;;;;;;24.68;52.62;101308.16;5113621;28;20028;-70
2023/05/21 14:33:32;;;;;;;16.88;10.77;;;;;;;24.57;53.20;101302.81;5114127;28;20136;-69
2023/05/21 14:35:58;;;;;;;12.85;10.55;;;;;;;24.45;53.75;101316.34;5114628;28;20023;-70
2023/05/21 14:38:23;;;;;;;13.70;10.55;;;;;;;24.28;53.91;101305.91;5125263;27;20030;-69
2023/05/21 14:40:49;;;;;;;13.82;9.55;;;;;;;24.25;53.39;101317.59;5133969;27;20027;-70
2023/05/21 14:43:14;;;;;;;15.18;10.15;;;;;;;24.33;53.75;101305.00;5134951;27;20019;-68
2023/05/21 14:45:40;;;;;;;17.90;11.95;;;;;;;24.41;53.51;101302.34;5121531;27;20084;-71
2023/05/21 14:48:07;;;;;;;13.95;10.60;;;;;;;24.52;52.88;101305.72;5114292;28;20028;-70
2023/05/21 14:50:36;;;;;;;14.48;10.07;;;;;;;24.70;54.10;101298.44;5114090;28;20058;-69
2023/05/21 14:53:04;;;;;;;12.20;10.32;;;;;;;24.74;52.42;101290.31;5114236;28;20463;-70
2023/05/21 14:55:29;;;;;;;12.50;9.40;;;;;;;24.81;52.23;101284.38;5113907;28;20054;-69
2023/05/21 14:57:54;;;;;;;15.93;10.20;;;;;;;25.01;52.80;101288.63;5113347;28;20454;-69
2023/05/21 15:00:20;;;;;;;12.50;9.80;;;;;;;24.92;51.75;101286.59;5113807;27;20114;-70
2023/05/21 15:02:45;;;;;;;14.18;9.63;;;;;;;25.03;51.42;101273.34;5110558;28;20043;-71
2023/05/21 15:05:10;;;;;;;12.73;9.20;;;;;;;25.11;51.57;101275.34;5113746;28;20048;-70
2023/05/21 15:07:36;;;;;;;14.75;9.93;;;;;;;25.26;51.02;101279.72;5113574;28;20068;-69
2023/05/21 15:10:01;;;;;;;12.10;10.27;;;;;;;25.28;50.21;101271.09;5113895;28;20118;-70
2023/05/21 15:12:26;;;;;;;13.32;9.45;;;;;;;25.38;49.57;101281.09;5113729;28;20433;-70
2023/05/21 15:14:52;;;;;;;12.73;9.57;;;;;;;25.45;50.14;101271.25;5112525;28;20525;-71
2023/05/21 15:17:17;;;;;;;12.40;8.75;;;;;;;25.43;50.34;101279.03;5113887;28;20023;-69
2023/05/21 15:19:42;;;;;;;11.60;9.77;;;;;;;25.53;49.84;101266.88;5112652;28;20028;-71
2023/05/21 15:22:07;;;;;;;14.20;9.93;;;;;;;25.75;49.34;101273.53;5129788;27;20287;-70
2023/05/21 15:24:33;;;;;;;12.98;9.25;;;;;;;26.14;49.65;101274.72;5132601;27;20029;-70
2023/05/21 15:26:58;;;;;;;11.48;8.60;;;;;;;26.47;48.40;101272.34;5134430;27;20446;-69
2023/05/21 15:29:23;;;;;;;11.77;8.93;;;;;;;26.52;47.69;101263.06;5130254;27;20035;-71
2023/05/21 15:31:49;;;;;;;10.77;8.82;;;;;;;26.36;47.75;101265.50;5113339;28;20281;-70
2023/05/21 15:34:15;;;;;;;14.68;9.93;;;;;;;26.23;48.45;101267.22;5113457;28;20045;-70
2023/05/21 15:36:40;;;;;;;12.65;9.10;;;;;;;26.27;48.23;101273.78;5111954;28;20016;-71
2023/05/21 15:39:06;;;;;;;11.60;9.20;;;;;;;26.53;47.45;101256.38;5113393;28;20073;-71
2023/05/21 15:41:37;;;;;;;14.02;10.02;;;;;;;26.95;47.31;101269.81;5113096;28;20285;-69
2023/05/21 15:44:03;;;;;;;15.13;10.52;;;;;;;27.42;45.76;101270.00;5112604;27;20024;-69
2023/05/21 15:46:28;;;;;;;13.52;9.02;;;;;;;27.51;45.09;101272.75;5113132;28;20015;-70
2023/05/21 15:48:54;;;;;;;12.80;9.07;;;;;;;27.50;45.58;101279.47;5112978;28;20080;-71
2023/05/21 15:51:19;;;;;;;14.97;10.17;;;;;;;27.59;45.23;101267.16;5113252;28;20269;-70
2023/05/21 15:53:44;;;;;;;17.27;12.07;;;;;;;27.41;45.16;101271.94;5112871;28;20249;-70
2023/05/21 15:56:10;;;;;;;16.38;9.75;;;;;;;26.79;45.95;101280.63;5112846;28;20378;-71
2023/05/21 15:58:35;;;;;;;12.68;9.70;;;;;;;26.26;46.83;101286.00;5112306;28;20027;-70
2023/05/21 16:01:00;;;;;;;13.32;9.73;;;;;;;25.73;48.07;101276.63;5110227;28;20019;-70
